createdAt,value
2018-08-02T00:00:45.602Z,1017.92
2018-08-02T00:01:45.494Z,1017.93
2018-08-02T00:02:45.513Z,1017.97
2018-08-02T00:03:45.454Z,1017.96
2018-08-02T00:04:45.529Z,1017.91
2018-08-02T00:05:45.421Z,1017.95
2018-08-02T00:06:45.441Z,1017.87
2018-08-02T00:07:45.378Z,1017.90
2018-08-02T00:08:45.453Z,1017.91
2018-08-02T00:09:45.344Z,1017.91
2018-08-02T00:10:45.366Z,1017.91
2018-08-02T00:11:45.315Z,1017.95
2018-08-02T00:12:45.380Z,1017.94
2018-08-02T00:13:45.262Z,1018.00
2018-08-02T00:14:45.303Z,1017.95
2018-08-02T00:15:45.298Z,1017.95
2018-08-02T00:16:45.307Z,1017.94
2018-08-02T00:17:45.198Z,1017.94
2018-08-02T00:18:45.219Z,1017.91
2018-08-02T00:19:45.162Z,1017.93
2018-08-02T00:20:45.234Z,1017.91
2018-08-02T00:21:45.135Z,1017.91
2018-08-02T00:22:45.144Z,1017.95
2018-08-02T00:23:45.080Z,1017.93
2018-08-02T00:24:45.159Z,1017.99
2018-08-02T00:25:45.043Z,1017.95
2018-08-02T00:26:45.070Z,1017.98
2018-08-02T00:27:45.000Z,1017.94
2018-08-02T00:28:45.085Z,1017.94
2018-08-02T00:29:44.965Z,1017.95
2018-08-02T00:30:44.996Z,1017.93
2018-08-02T00:31:44.928Z,1017.93
2018-08-02T00:32:45.010Z,1017.92
2018-08-02T00:33:44.890Z,1017.92
2018-08-02T00:34:44.924Z,1017.93
2018-08-02T00:35:44.858Z,1017.95
2018-08-02T00:36:44.938Z,1017.97
2018-08-02T00:37:44.817Z,1017.98
2018-08-02T00:38:44.849Z,1017.98
2018-08-02T00:39:44.782Z,1017.98
2018-08-02T00:40:44.863Z,1018.03
2018-08-02T00:41:44.738Z,1018.01
2018-08-02T00:42:44.776Z,1018.04
2018-08-02T00:43:44.701Z,1018.02
2018-08-02T00:44:44.791Z,1017.98
2018-08-02T00:45:44.667Z,1017.97
2018-08-02T00:46:44.703Z,1017.99
2018-08-02T00:47:44.624Z,1018.00
2018-08-02T00:48:44.717Z,1017.90
2018-08-02T00:49:44.586Z,1017.97
2018-08-02T00:50:44.628Z,1017.94
2018-08-02T00:51:44.551Z,1017.93
2018-08-02T00:52:44.538Z,1017.93
2018-08-02T00:53:44.544Z,1017.96
2018-08-02T00:54:44.576Z,1017.94
2018-08-02T00:55:44.472Z,1017.97
2018-08-02T00:56:44.466Z,1017.94
2018-08-02T00:57:44.438Z,1017.92
2018-08-02T00:58:44.485Z,1017.91
2018-08-02T00:59:44.393Z,1017.88
2018-08-02T01:00:44.385Z,1017.89
2018-08-02T01:01:44.355Z,1017.92
2018-08-02T01:02:44.407Z,1017.86
2018-08-02T01:03:44.318Z,1017.86
2018-08-02T01:04:44.317Z,1017.86
2018-08-02T01:05:44.278Z,1017.84
2018-08-02T01:06:44.332Z,1017.83
2018-08-02T01:07:44.240Z,1017.87
2018-08-02T01:08:44.247Z,1017.81
2018-08-02T01:09:44.202Z,1017.82
2018-08-02T01:10:44.271Z,1017.81
2018-08-02T01:11:44.163Z,1017.81
2018-08-02T01:12:44.165Z,1017.80
2018-08-02T01:13:44.124Z,1017.82
2018-08-02T01:14:44.185Z,1017.82
2018-08-02T01:15:44.083Z,1017.81
2018-08-02T01:16:44.097Z,1017.84
2018-08-02T01:17:44.046Z,1017.81
2018-08-02T01:18:44.113Z,1017.86
2018-08-02T01:19:44.013Z,1017.86
2018-08-02T01:20:44.022Z,1017.89
2018-08-02T01:21:43.968Z,1017.88
2018-08-02T01:22:44.041Z,1017.88
2018-08-02T01:23:43.928Z,1017.91
2018-08-02T01:24:43.949Z,1017.91
2018-08-02T01:25:43.889Z,1017.93
2018-08-02T01:26:43.964Z,1017.92
2018-08-02T01:27:43.854Z,1017.98
2018-08-02T01:28:43.880Z,1017.99
2018-08-02T01:29:43.812Z,1017.98
2018-08-02T01:30:43.891Z,1017.99
2018-08-02T01:31:43.774Z,1018.00
2018-08-02T01:32:43.801Z,1017.99
2018-08-02T01:33:43.733Z,1017.98
2018-08-02T01:34:43.816Z,1017.96
2018-08-02T01:35:43.696Z,1017.94
2018-08-02T01:36:43.726Z,1017.96
2018-08-02T01:37:43.657Z,1017.91
2018-08-02T01:38:43.743Z,1017.96
2018-08-02T01:39:43.618Z,1017.92
2018-08-02T01:40:43.653Z,1017.94
2018-08-02T01:41:43.583Z,1017.96
2018-08-02T01:42:43.670Z,1017.98
2018-08-02T01:43:43.541Z,1017.95
2018-08-02T01:44:43.580Z,1017.96
2018-08-02T01:45:43.502Z,1017.97
2018-08-02T01:46:43.594Z,1017.96
2018-08-02T01:47:43.459Z,1017.96
2018-08-02T01:48:43.506Z,1017.95
2018-08-02T01:49:43.425Z,1017.97
2018-08-02T01:50:43.418Z,1017.95
2018-08-02T01:51:43.379Z,1017.96
2018-08-02T01:52:43.432Z,1017.96
2018-08-02T01:53:43.343Z,1018.00
2018-08-02T01:54:43.344Z,1017.97
2018-08-02T01:55:43.303Z,1017.99
2018-08-02T01:56:43.357Z,1017.98
2018-08-02T01:57:43.264Z,1017.97
2018-08-02T01:58:43.273Z,1017.97
2018-08-02T01:59:43.221Z,1017.97
2018-08-02T02:00:43.302Z,1017.99
2018-08-02T02:01:43.186Z,1017.96
2018-08-02T02:02:43.198Z,1018.05
2018-08-02T02:03:43.144Z,1018.02
2018-08-02T02:04:43.209Z,1018.02
2018-08-02T02:05:43.127Z,1018.04
2018-08-02T02:06:43.123Z,1018.06
2018-08-02T02:07:43.065Z,1018.03
2018-08-02T02:08:43.137Z,1018.06
2018-08-02T02:09:43.028Z,1018.03
2018-08-02T02:10:43.047Z,1017.99
2018-08-02T02:11:42.982Z,1018.06
2018-08-02T02:12:43.062Z,1018.03
2018-08-02T02:13:42.945Z,1018.00
2018-08-02T02:14:42.974Z,1018.04
2018-08-02T02:15:42.904Z,1018.02
2018-08-02T02:16:42.989Z,1018.03
2018-08-02T02:17:42.863Z,1018.06
2018-08-02T02:18:42.900Z,1018.06
2018-08-02T02:19:42.824Z,1018.10
2018-08-02T02:20:42.914Z,1018.07
2018-08-02T02:21:42.788Z,1018.11
2018-08-02T02:22:42.836Z,1018.09
2018-08-02T02:23:42.745Z,1018.07
2018-08-02T02:24:42.741Z,1018.08
2018-08-02T02:25:42.708Z,1018.04
2018-08-02T02:26:42.751Z,1018.04
2018-08-02T02:27:42.670Z,1018.04
2018-08-02T02:28:42.665Z,1018.03
2018-08-02T02:29:42.627Z,1018.00
2018-08-02T02:30:42.679Z,1017.99
2018-08-02T02:31:42.592Z,1017.97
2018-08-02T02:32:42.598Z,1018.01
2018-08-02T02:33:42.570Z,1017.99
2018-08-02T02:34:42.608Z,1018.04
2018-08-02T02:35:42.508Z,1018.02
2018-08-02T02:36:42.516Z,1018.00
2018-08-02T02:37:42.465Z,1017.97
2018-08-02T02:38:42.531Z,1018.01
2018-08-02T02:39:42.424Z,1018.05
2018-08-02T02:40:42.442Z,1018.01
2018-08-02T02:41:42.387Z,1018.03
2018-08-02T02:42:42.455Z,1018.01
2018-08-02T02:43:42.345Z,1018.01
2018-08-02T02:44:42.369Z,1018.02
2018-08-02T02:45:42.306Z,1018.01
2018-08-02T02:46:42.384Z,1018.02
2018-08-02T02:47:42.264Z,1018.03
2018-08-02T02:48:42.295Z,1018.02
2018-08-02T02:49:42.226Z,1018.02
2018-08-02T02:50:42.309Z,1018.05
2018-08-02T02:51:42.188Z,1018.05
2018-08-02T02:52:42.221Z,1018.05
2018-08-02T02:53:42.148Z,1018.03
2018-08-02T02:54:42.234Z,1018.03
2018-08-02T02:55:42.108Z,1018.02
2018-08-02T02:56:42.147Z,1018.01
2018-08-02T02:57:42.064Z,1018.04
2018-08-02T02:58:42.059Z,1018.03
2018-08-02T02:59:42.027Z,1017.99
2018-08-02T03:00:42.083Z,1018.02
2018-08-02T03:01:41.986Z,1017.99
2018-08-02T03:02:41.985Z,1017.97
2018-08-02T03:03:41.950Z,1018.00
2018-08-02T03:04:42.006Z,1018.04
2018-08-02T03:05:41.907Z,1018.04
2018-08-02T03:06:41.917Z,1018.06
2018-08-02T03:07:41.862Z,1018.05
2018-08-02T03:08:41.927Z,1018.04
2018-08-02T03:09:41.823Z,1018.08
2018-08-02T03:10:41.847Z,1018.05
2018-08-02T03:11:41.783Z,1018.06
2018-08-02T03:12:41.886Z,1018.07
2018-08-02T03:13:41.745Z,1018.02
2018-08-02T03:14:41.767Z,1018.05
2018-08-02T03:15:41.706Z,1018.01
2018-08-02T03:16:41.778Z,1018.02
2018-08-02T03:17:41.661Z,1018.02
2018-08-02T03:18:41.685Z,1018.05
2018-08-02T03:19:41.619Z,1018.04
2018-08-02T03:20:41.712Z,1018.07
2018-08-02T03:21:41.578Z,1018.12
2018-08-02T03:22:41.618Z,1018.12
2018-08-02T03:23:41.540Z,1018.11
2018-08-02T03:24:41.632Z,1018.17
2018-08-02T03:25:41.509Z,1018.18
2018-08-02T03:26:41.546Z,1018.16
2018-08-02T03:27:41.453Z,1018.15
2018-08-02T03:28:41.456Z,1018.20
2018-08-02T03:29:41.416Z,1018.19
2018-08-02T03:30:41.470Z,1018.24
2018-08-02T03:31:41.377Z,1018.23
2018-08-02T03:32:41.489Z,1018.22
2018-08-02T03:33:41.334Z,1018.26
2018-08-02T03:34:41.397Z,1018.22
2018-08-02T03:35:41.292Z,1018.23
2018-08-02T03:36:41.309Z,1018.24
2018-08-02T03:37:41.253Z,1018.26
2018-08-02T03:38:41.321Z,1018.26
2018-08-02T03:39:41.211Z,1018.26
2018-08-02T03:40:41.235Z,1018.28
2018-08-02T03:41:41.175Z,1018.31
2018-08-02T03:42:41.247Z,1018.33
2018-08-02T03:43:41.134Z,1018.38
2018-08-02T03:44:41.158Z,1018.38
2018-08-02T03:45:41.088Z,1018.37
2018-08-02T03:46:41.172Z,1018.37
2018-08-02T03:47:41.051Z,1018.36
2018-08-02T03:48:41.084Z,1018.37
2018-08-02T03:49:41.008Z,1018.40
2018-08-02T03:50:41.100Z,1018.40
2018-08-02T03:51:40.978Z,1018.40
2018-08-02T03:52:41.013Z,1018.46
2018-08-02T03:53:40.968Z,1018.45
2018-08-02T03:54:40.929Z,1018.45
2018-08-02T03:55:40.884Z,1018.52
2018-08-02T03:56:40.935Z,1018.51
2018-08-02T03:57:40.847Z,1018.52
2018-08-02T03:58:40.848Z,1018.52
2018-08-02T03:59:40.803Z,1018.52
2018-08-02T04:00:40.864Z,1018.53
2018-08-02T04:01:40.765Z,1018.51
2018-08-02T04:02:40.779Z,1018.52
2018-08-02T04:03:40.720Z,1018.56
2018-08-02T04:04:40.796Z,1018.55
2018-08-02T04:05:40.681Z,1018.53
2018-08-02T04:06:40.701Z,1018.50
2018-08-02T04:07:40.670Z,1018.51
2018-08-02T04:08:40.714Z,1018.55
2018-08-02T04:09:40.596Z,1018.55
2018-08-02T04:10:40.626Z,1018.55
2018-08-02T04:11:40.554Z,1018.59
2018-08-02T04:12:40.640Z,1018.57
2018-08-02T04:13:40.513Z,1018.58
2018-08-02T04:14:40.552Z,1018.59
2018-08-02T04:15:40.491Z,1018.62
2018-08-02T04:16:40.582Z,1018.55
2018-08-02T04:17:40.432Z,1018.58
2018-08-02T04:18:40.480Z,1018.60
2018-08-02T04:19:40.392Z,1018.60
2018-08-02T04:20:40.392Z,1018.57
2018-08-02T04:21:40.349Z,1018.57
2018-08-02T04:22:40.404Z,1018.60
2018-08-02T04:23:40.309Z,1018.61
2018-08-02T04:24:40.316Z,1018.61
2018-08-02T04:25:40.267Z,1018.64
2018-08-02T04:26:40.331Z,1018.64
2018-08-02T04:27:40.228Z,1018.62
2018-08-02T04:28:40.243Z,1018.65
2018-08-02T04:29:40.187Z,1018.66
2018-08-02T04:30:40.255Z,1018.66
2018-08-02T04:31:40.143Z,1018.69
2018-08-02T04:32:40.169Z,1018.69
2018-08-02T04:33:40.101Z,1018.72
2018-08-02T04:34:40.184Z,1018.72
2018-08-02T04:35:40.061Z,1018.71
2018-08-02T04:36:40.095Z,1018.71
2018-08-02T04:37:40.024Z,1018.71
2018-08-02T04:38:40.111Z,1018.72
2018-08-02T04:39:39.975Z,1018.68
2018-08-02T04:40:40.021Z,1018.67
2018-08-02T04:41:39.938Z,1018.66
2018-08-02T04:42:39.932Z,1018.66
2018-08-02T04:43:39.897Z,1018.66
2018-08-02T04:44:39.947Z,1018.65
2018-08-02T04:45:39.855Z,1018.70
2018-08-02T04:46:39.859Z,1018.69
2018-08-02T04:47:39.817Z,1018.67
2018-08-02T04:48:39.873Z,1018.71
2018-08-02T04:49:39.772Z,1018.71
2018-08-02T04:50:39.786Z,1018.70
2018-08-02T04:51:39.734Z,1018.75
2018-08-02T04:52:39.799Z,1018.74
2018-08-02T04:53:39.692Z,1018.75
2018-08-02T04:54:39.711Z,1018.71
2018-08-02T04:55:39.647Z,1018.72
2018-08-02T04:56:39.727Z,1018.71
2018-08-02T04:57:39.611Z,1018.72
2018-08-02T04:58:39.643Z,1018.72
2018-08-02T04:59:39.611Z,1018.70
2018-08-02T05:00:39.653Z,1018.68
2018-08-02T05:01:39.529Z,1018.60
2018-08-02T05:02:39.564Z,1018.58
2018-08-02T05:03:39.485Z,1018.60
2018-08-02T05:04:39.579Z,1018.54
2018-08-02T05:05:39.445Z,1018.57
2018-08-02T05:06:39.488Z,1018.60
2018-08-02T05:07:39.404Z,1018.60
2018-08-02T05:08:39.408Z,1018.61
2018-08-02T05:09:39.362Z,1018.63
2018-08-02T05:10:39.415Z,1018.62
2018-08-02T05:11:39.320Z,1018.62
2018-08-02T05:12:39.326Z,1018.62
2018-08-02T05:13:39.282Z,1018.63
2018-08-02T05:14:39.343Z,1018.59
2018-08-02T05:15:39.239Z,1018.60
2018-08-02T05:16:39.252Z,1018.64
2018-08-02T05:17:39.198Z,1018.65
2018-08-02T05:18:39.267Z,1018.67
2018-08-02T05:19:39.158Z,1018.67
2018-08-02T05:20:39.183Z,1018.70
2018-08-02T05:21:39.122Z,1018.70
2018-08-02T05:22:39.195Z,1018.73
2018-08-02T05:23:39.073Z,1018.73
2018-08-02T05:24:39.107Z,1018.72
2018-08-02T05:25:39.038Z,1018.74
2018-08-02T05:26:39.122Z,1018.73
2018-08-02T05:27:38.997Z,1018.71
2018-08-02T05:28:39.032Z,1018.72
2018-08-02T05:29:38.955Z,1018.74
2018-08-02T05:30:39.046Z,1018.76
2018-08-02T05:31:38.919Z,1018.75
2018-08-02T05:32:38.960Z,1018.74
2018-08-02T05:33:38.890Z,1018.76
2018-08-02T05:34:39.028Z,1018.76
2018-08-02T05:35:38.951Z,1018.80
2018-08-02T05:36:39.373Z,1018.79
2018-08-02T05:37:38.798Z,1018.79
2018-08-02T05:38:38.797Z,1018.79
2018-08-02T05:39:38.765Z,1018.80
2018-08-02T05:40:38.814Z,1018.75
2018-08-02T05:41:38.720Z,1018.74
2018-08-02T05:42:38.723Z,1018.77
2018-08-02T05:43:38.677Z,1018.76
2018-08-02T05:44:38.739Z,1018.75
2018-08-02T05:45:38.934Z,1018.83
2018-08-02T05:46:38.648Z,1018.82
2018-08-02T05:47:38.598Z,1018.85
2018-08-02T05:48:38.666Z,1018.85
2018-08-02T05:49:38.553Z,1018.85
2018-08-02T05:50:38.577Z,1018.84
2018-08-02T05:51:38.592Z,1018.87
2018-08-02T05:52:38.589Z,1018.88
2018-08-02T05:53:38.478Z,1018.90
2018-08-02T05:54:38.503Z,1018.88
2018-08-02T05:55:38.441Z,1018.90
2018-08-02T05:56:38.513Z,1018.92
2018-08-02T05:57:38.410Z,1018.86
2018-08-02T05:58:38.429Z,1018.95
2018-08-02T05:59:38.365Z,1018.94
2018-08-02T06:00:38.442Z,1018.97
2018-08-02T06:01:38.325Z,1019.02
2018-08-02T06:02:38.350Z,1019.03
2018-08-02T06:03:38.283Z,1019.08
2018-08-02T06:04:38.366Z,1019.06
2018-08-02T06:05:38.250Z,1019.06
2018-08-02T06:06:38.277Z,1019.09
2018-08-02T06:07:38.203Z,1019.14
2018-08-02T06:08:38.290Z,1019.14
2018-08-02T06:09:38.164Z,1019.13
2018-08-02T06:10:38.206Z,1019.14
2018-08-02T06:11:38.124Z,1019.14
2018-08-02T06:12:38.224Z,1019.12
2018-08-02T06:13:38.089Z,1019.16
2018-08-02T06:14:38.145Z,1019.13
2018-08-02T06:15:38.051Z,1019.18
2018-08-02T06:16:38.064Z,1019.17
2018-08-02T06:17:38.008Z,1019.20
2018-08-02T06:18:38.060Z,1019.24
2018-08-02T06:19:37.971Z,1019.25
2018-08-02T06:20:37.970Z,1019.21
2018-08-02T06:21:37.931Z,1019.24
2018-08-02T06:22:37.980Z,1019.24
2018-08-02T06:23:37.896Z,1019.25
2018-08-02T06:24:37.896Z,1019.19
2018-08-02T06:25:37.855Z,1019.20
2018-08-02T06:26:37.910Z,1019.22
2018-08-02T06:27:37.817Z,1019.22
2018-08-02T06:28:37.822Z,1019.27
2018-08-02T06:29:37.782Z,1019.25
2018-08-02T06:30:37.837Z,1019.28
2018-08-02T06:31:37.743Z,1019.30
2018-08-02T06:32:37.752Z,1019.32
2018-08-02T06:33:37.701Z,1019.33
2018-08-02T06:34:37.766Z,1019.30
2018-08-02T06:35:37.663Z,1019.31
2018-08-02T06:36:37.675Z,1019.26
2018-08-02T06:37:37.663Z,1019.29
2018-08-02T06:38:37.688Z,1019.26
2018-08-02T06:39:37.612Z,1019.27
2018-08-02T06:40:37.600Z,1019.25
2018-08-02T06:41:37.548Z,1019.23
2018-08-02T06:42:37.617Z,1019.24
2018-08-02T06:43:37.512Z,1019.23
2018-08-02T06:44:37.528Z,1019.24
2018-08-02T06:45:37.474Z,1019.20
2018-08-02T06:46:37.542Z,1019.21
2018-08-02T06:47:37.433Z,1019.24
2018-08-02T06:48:37.453Z,1019.23
2018-08-02T06:49:37.397Z,1019.23
2018-08-02T06:50:37.469Z,1019.30
2018-08-02T06:51:37.397Z,1019.24
2018-08-02T06:52:37.379Z,1019.29
2018-08-02T06:53:37.321Z,1019.29
2018-08-02T06:54:37.392Z,1019.32
2018-08-02T06:55:37.286Z,1019.32
2018-08-02T06:56:37.309Z,1019.30
2018-08-02T06:57:37.247Z,1019.33
2018-08-02T06:58:37.318Z,1019.31
2018-08-02T06:59:37.207Z,1019.34
2018-08-02T07:00:37.230Z,1019.33
2018-08-02T07:01:37.171Z,1019.31
2018-08-02T07:02:37.246Z,1019.30
2018-08-02T07:03:37.136Z,1019.32
2018-08-02T07:04:37.157Z,1019.37
2018-08-02T07:05:37.097Z,1019.37
2018-08-02T07:06:37.173Z,1019.38
2018-08-02T07:07:37.056Z,1019.42
2018-08-02T07:08:37.082Z,1019.45
2018-08-02T07:09:37.027Z,1019.45
2018-08-02T07:10:37.098Z,1019.42
2018-08-02T07:11:36.989Z,1019.42
2018-08-02T07:12:37.008Z,1019.47
2018-08-02T07:13:36.947Z,1019.44
2018-08-02T07:14:37.025Z,1019.44
2018-08-02T07:15:36.914Z,1019.44
2018-08-02T07:16:36.933Z,1019.43
2018-08-02T07:17:36.878Z,1019.43
2018-08-02T07:18:36.949Z,1019.43
2018-08-02T07:19:36.841Z,1019.42
2018-08-02T07:20:36.861Z,1019.39
2018-08-02T07:21:36.803Z,1019.45
2018-08-02T07:22:36.875Z,1019.44
2018-08-02T07:23:36.764Z,1019.45
2018-08-02T07:24:36.786Z,1019.41
2018-08-02T07:25:36.737Z,1019.43
2018-08-02T07:26:36.801Z,1019.41
2018-08-02T07:27:36.691Z,1019.41
2018-08-02T07:28:36.725Z,1019.41
2018-08-02T07:29:36.656Z,1019.38
2018-08-02T07:30:36.743Z,1019.37
2018-08-02T07:31:36.626Z,1019.42
2018-08-02T07:32:36.639Z,1019.38
2018-08-02T07:33:36.649Z,1019.43
2018-08-02T07:34:36.651Z,1019.40
2018-08-02T07:35:36.551Z,1019.38
2018-08-02T07:36:36.566Z,1019.38
2018-08-02T07:37:36.512Z,1019.44
2018-08-02T07:38:36.582Z,1019.44
2018-08-02T07:39:36.481Z,1019.45
2018-08-02T07:40:36.501Z,1019.49
2018-08-02T07:41:36.443Z,1019.49
2018-08-02T07:42:36.506Z,1019.51
2018-08-02T07:43:36.407Z,1019.53
2018-08-02T07:44:36.418Z,1019.54
2018-08-02T07:45:36.372Z,1019.59
2018-08-02T07:46:36.434Z,1019.51
2018-08-02T07:47:36.335Z,1019.54
2018-08-02T07:48:36.378Z,1019.56
2018-08-02T07:49:36.299Z,1019.55
2018-08-02T07:50:36.367Z,1019.55
2018-08-02T07:51:36.262Z,1019.56
2018-08-02T07:52:36.271Z,1019.53
2018-08-02T07:53:36.229Z,1019.54
2018-08-02T07:54:36.285Z,1019.51
2018-08-02T07:55:36.196Z,1019.52
2018-08-02T07:56:36.196Z,1019.50
2018-08-02T07:57:36.157Z,1019.57
2018-08-02T07:58:36.217Z,1019.54
2018-08-02T07:59:36.127Z,1019.55
2018-08-02T08:00:36.121Z,1019.54
2018-08-02T08:01:36.089Z,1019.56
2018-08-02T08:02:36.137Z,1019.53
2018-08-02T08:03:36.056Z,1019.58
2018-08-02T08:04:36.054Z,1019.54
2018-08-02T08:05:36.018Z,1019.52
2018-08-02T08:06:36.065Z,1019.51
2018-08-02T08:07:35.983Z,1019.52
2018-08-02T08:08:36.077Z,1019.50
2018-08-02T08:09:35.948Z,1019.46
2018-08-02T08:10:35.988Z,1019.49
2018-08-02T08:11:35.912Z,1019.45
2018-08-02T08:12:36.030Z,1019.50
2018-08-02T08:13:35.881Z,1019.49
2018-08-02T08:14:35.914Z,1019.50
2018-08-02T08:15:35.846Z,1019.53
2018-08-02T08:16:35.937Z,1019.51
2018-08-02T08:17:35.813Z,1019.50
2018-08-02T08:18:35.843Z,1019.54
2018-08-02T08:19:35.780Z,1019.48
2018-08-02T08:20:35.858Z,1019.52
2018-08-02T08:21:35.753Z,1019.47
2018-08-02T08:22:35.780Z,1019.49
2018-08-02T08:23:35.709Z,1019.54
2018-08-02T08:24:35.783Z,1019.53
2018-08-02T08:25:35.677Z,1019.48
2018-08-02T08:26:35.721Z,1019.46
2018-08-02T08:27:35.647Z,1019.54
2018-08-02T08:28:35.708Z,1019.53
2018-08-02T08:29:35.630Z,1019.50
2018-08-02T08:30:35.619Z,1019.45
2018-08-02T08:31:35.607Z,1019.48
2018-08-02T08:32:35.635Z,1019.50
2018-08-02T08:33:35.544Z,1019.51
2018-08-02T08:34:35.547Z,1019.51
2018-08-02T08:35:35.508Z,1019.55
2018-08-02T08:36:35.564Z,1019.53
2018-08-02T08:37:35.492Z,1019.55
2018-08-02T08:38:35.576Z,1019.57
2018-08-02T08:39:35.442Z,1019.50
2018-08-02T08:40:35.488Z,1019.52
2018-08-02T08:41:35.409Z,1019.50
2018-08-02T08:42:35.503Z,1019.51
2018-08-02T08:43:35.411Z,1019.50
2018-08-02T08:44:35.414Z,1019.52
2018-08-02T08:45:35.344Z,1019.52
2018-08-02T08:46:35.429Z,1019.54
2018-08-02T08:47:35.311Z,1019.54
2018-08-02T08:48:35.346Z,1019.55
2018-08-02T08:49:35.300Z,1019.58
2018-08-02T08:50:35.368Z,1019.56
2018-08-02T08:51:35.248Z,1019.57
2018-08-02T08:52:35.270Z,1019.59
2018-08-02T08:53:35.217Z,1019.55
2018-08-02T08:54:35.290Z,1019.57
2018-08-02T08:55:35.185Z,1019.58
2018-08-02T08:56:35.248Z,1019.63
2018-08-02T08:57:35.149Z,1019.68
2018-08-02T08:58:35.207Z,1019.68
2018-08-02T08:59:35.121Z,1019.71
2018-08-02T09:00:35.222Z,1019.70
2018-08-02T09:01:35.089Z,1019.70
2018-08-02T09:02:35.138Z,1019.73
2018-08-02T09:03:35.133Z,1019.70
2018-08-02T09:04:35.147Z,1019.69
2018-08-02T09:05:35.028Z,1019.75
2018-08-02T09:06:35.059Z,1019.68
2018-08-02T09:07:34.993Z,1019.66
2018-08-02T09:08:35.072Z,1019.63
2018-08-02T09:09:35.061Z,1019.69
2018-08-02T09:10:35.015Z,1019.65
2018-08-02T09:11:34.929Z,1019.68
2018-08-02T09:12:35.015Z,1019.69
2018-08-02T09:13:34.900Z,1019.67
2018-08-02T09:14:34.910Z,1019.69
2018-08-02T09:15:34.872Z,1019.70
2018-08-02T09:16:34.925Z,1019.71
2018-08-02T09:17:34.840Z,1019.71
2018-08-02T09:18:34.937Z,1019.73
2018-08-02T09:19:34.808Z,1019.74
2018-08-02T09:20:34.846Z,1019.74
2018-08-02T09:21:34.787Z,1019.76
2018-08-02T09:22:34.863Z,1019.72
2018-08-02T09:23:34.751Z,1019.75
2018-08-02T09:24:34.774Z,1019.73
2018-08-02T09:25:34.737Z,1019.77
2018-08-02T09:26:34.810Z,1019.73
2018-08-02T09:27:34.693Z,1019.72
2018-08-02T09:28:34.701Z,1019.75
2018-08-02T09:29:34.666Z,1019.73
2018-08-02T09:30:34.713Z,1019.76
2018-08-02T09:31:34.632Z,1019.78
2018-08-02T09:32:34.786Z,1019.79
2018-08-02T09:33:34.604Z,1019.80
2018-08-02T09:34:34.640Z,1019.80
2018-08-02T09:35:34.594Z,1019.73
2018-08-02T09:36:34.656Z,1019.74
2018-08-02T09:37:34.546Z,1019.73
2018-08-02T09:38:34.580Z,1019.73
2018-08-02T09:39:34.519Z,1019.71
2018-08-02T09:40:34.580Z,1019.73
2018-08-02T09:41:34.492Z,1019.74
2018-08-02T09:42:34.491Z,1019.75
2018-08-02T09:43:34.465Z,1019.80
2018-08-02T09:44:34.508Z,1019.81
2018-08-02T09:45:34.440Z,1019.78
2018-08-02T09:46:34.550Z,1019.77
2018-08-02T09:47:34.405Z,1019.75
2018-08-02T09:48:34.432Z,1019.75
2018-08-02T09:49:34.388Z,1019.79
2018-08-02T09:50:34.446Z,1019.77
2018-08-02T09:51:34.360Z,1019.74
2018-08-02T09:52:34.361Z,1019.72
2018-08-02T09:53:34.336Z,1019.74
2018-08-02T09:54:34.366Z,1019.77
2018-08-02T09:55:34.306Z,1019.77
2018-08-02T09:56:34.424Z,1019.73
2018-08-02T09:57:34.282Z,1019.78
2018-08-02T09:58:34.300Z,1019.78
2018-08-02T09:59:34.254Z,1019.76
2018-08-02T10:00:34.322Z,1019.78
2018-08-02T10:01:34.230Z,1019.79
2018-08-02T10:02:34.336Z,1019.79
2018-08-02T10:03:34.235Z,1019.76
2018-08-02T10:04:34.239Z,1019.79
2018-08-02T10:05:34.178Z,1019.75
2018-08-02T10:06:34.256Z,1019.76
2018-08-02T10:07:34.155Z,1019.72
2018-08-02T10:08:34.166Z,1019.75
2018-08-02T10:09:34.129Z,1019.75
2018-08-02T10:10:34.180Z,1019.76
2018-08-02T10:11:34.107Z,1019.71
2018-08-02T10:12:34.194Z,1019.70
2018-08-02T10:13:34.083Z,1019.79
2018-08-02T10:14:34.110Z,1019.80
2018-08-02T10:15:34.062Z,1019.82
2018-08-02T10:16:34.121Z,1019.76
2018-08-02T10:17:34.033Z,1019.77
2018-08-02T10:18:34.149Z,1019.77
2018-08-02T10:19:34.009Z,1019.77
2018-08-02T10:20:34.054Z,1019.77
2018-08-02T10:21:33.986Z,1019.78
2018-08-02T10:22:34.120Z,1019.81
2018-08-02T10:23:33.962Z,1019.75
2018-08-02T10:24:33.981Z,1019.77
2018-08-02T10:25:33.941Z,1019.77
2018-08-02T10:26:33.988Z,1019.77
2018-08-02T10:27:33.919Z,1019.81
2018-08-02T10:28:34.000Z,1019.79
2018-08-02T10:29:33.901Z,1019.78
2018-08-02T10:30:34.947Z,1019.79
2018-08-02T10:31:33.872Z,1019.82
2018-08-02T10:32:33.927Z,1019.81
2018-08-02T10:33:33.849Z,1019.81
2018-08-02T10:34:33.941Z,1019.79
2018-08-02T10:35:33.828Z,1019.80
2018-08-02T10:36:33.852Z,1019.77
2018-08-02T10:37:33.849Z,1019.81
2018-08-02T10:38:33.877Z,1019.77
2018-08-02T10:39:33.783Z,1019.78
2018-08-02T10:40:33.882Z,1019.79
2018-08-02T10:41:33.764Z,1019.78
2018-08-02T10:42:33.791Z,1019.76
2018-08-02T10:43:33.744Z,1019.82
2018-08-02T10:44:33.819Z,1019.74
2018-08-02T10:45:33.722Z,1019.86
2018-08-02T10:46:33.825Z,1019.81
2018-08-02T10:47:33.701Z,1019.79
2018-08-02T10:48:33.734Z,1019.81
2018-08-02T10:49:33.681Z,1019.83
2018-08-02T10:50:33.750Z,1019.78
2018-08-02T10:51:33.660Z,1019.78
2018-08-02T10:52:33.763Z,1019.77
2018-08-02T10:53:33.644Z,1019.78
2018-08-02T10:54:33.674Z,1019.78
2018-08-02T10:55:33.619Z,1019.79
2018-08-02T10:56:33.689Z,1019.77
2018-08-02T10:57:33.601Z,1019.73
2018-08-02T10:58:33.713Z,1019.72
2018-08-02T10:59:33.582Z,1019.70
2018-08-02T11:00:33.616Z,1019.72
2018-08-02T11:01:33.605Z,1019.72
2018-08-02T11:02:33.628Z,1019.72
2018-08-02T11:03:33.546Z,1019.69
2018-08-02T11:04:33.649Z,1019.71
2018-08-02T11:05:33.527Z,1019.73
2018-08-02T11:06:33.554Z,1019.66
2018-08-02T11:07:33.506Z,1019.68
2018-08-02T11:08:33.572Z,1019.65
2018-08-02T11:09:33.540Z,1019.65
2018-08-02T11:10:33.583Z,1019.62
2018-08-02T11:11:33.475Z,1019.64
2018-08-02T11:12:33.498Z,1019.66
2018-08-02T11:13:33.457Z,1019.67
2018-08-02T11:14:33.509Z,1019.68
2018-08-02T11:15:33.465Z,1019.69
2018-08-02T11:16:33.524Z,1019.68
2018-08-02T11:17:33.420Z,1019.69
2018-08-02T11:18:33.435Z,1019.72
2018-08-02T11:19:33.400Z,1019.67
2018-08-02T11:20:33.449Z,1019.67
2018-08-02T11:21:33.392Z,1019.63
2018-08-02T11:22:33.464Z,1019.60
2018-08-02T11:23:33.365Z,1019.60
2018-08-02T11:24:33.379Z,1019.61
2018-08-02T11:25:33.348Z,1019.64
2018-08-02T11:26:33.390Z,1019.65
2018-08-02T11:27:33.329Z,1019.66
2018-08-02T11:28:33.403Z,1019.66
2018-08-02T11:29:33.315Z,1019.66
2018-08-02T11:30:33.419Z,1019.64
2018-08-02T11:31:33.315Z,1019.64
2018-08-02T11:32:33.335Z,1019.61
2018-08-02T11:33:33.280Z,1019.66
2018-08-02T11:34:33.276Z,1019.65
2018-08-02T11:35:33.352Z,1019.67
2018-08-02T11:36:33.257Z,1019.68
2018-08-02T11:37:33.313Z,1019.67
2018-08-02T11:38:33.238Z,1019.64
2018-08-02T11:39:33.230Z,1019.62
2018-08-02T11:40:33.222Z,1019.58
2018-08-02T11:41:33.293Z,1019.63
2018-08-02T11:42:33.208Z,1019.61
2018-08-02T11:43:33.306Z,1019.58
2018-08-02T11:44:33.191Z,1019.61
2018-08-02T11:45:33.218Z,1019.60
2018-08-02T11:46:33.175Z,1019.59
2018-08-02T11:47:33.295Z,1019.61
2018-08-02T11:48:33.239Z,1019.58
2018-08-02T11:49:33.156Z,1019.57
2018-08-02T11:50:33.253Z,1019.54
2018-08-02T11:51:33.139Z,1019.57
2018-08-02T11:52:33.167Z,1019.56
2018-08-02T11:53:33.121Z,1019.52
2018-08-02T11:54:33.180Z,1019.53
2018-08-02T11:55:33.111Z,1019.59
2018-08-02T11:56:33.289Z,1019.52
2018-08-02T11:57:33.162Z,1019.52
2018-08-02T11:58:33.106Z,1019.50
2018-08-02T11:59:33.074Z,1019.46
2018-08-02T12:00:33.120Z,1019.51
2018-08-02T12:01:33.058Z,1019.51
2018-08-02T12:02:33.133Z,1019.47
2018-08-02T12:03:33.046Z,1019.44
2018-08-02T12:04:33.148Z,1019.49
2018-08-02T12:05:33.029Z,1019.46